createdAt,value
2018-07-25T00:01:56.923Z,8.00
2018-07-25T00:04:26.239Z,7.80
2018-07-25T00:06:55.590Z,9.17
2018-07-25T00:09:24.883Z,7.83
2018-07-25T00:11:54.179Z,9.60
2018-07-25T00:14:23.483Z,8.55
2018-07-25T00:16:52.804Z,8.03
2018-07-25T00:19:22.098Z,8.70
2018-07-25T00:21:51.403Z,10.47
2018-07-25T00:24:20.718Z,8.37
2018-07-25T00:26:50.050Z,9.37
2018-07-25T00:29:19.390Z,7.83
2018-07-25T00:31:48.751Z,9.80
2018-07-25T00:34:18.043Z,9.38
2018-07-25T00:36:47.338Z,9.63
2018-07-25T00:39:16.630Z,7.73
2018-07-25T00:41:45.952Z,9.20
2018-07-25T00:44:15.238Z,8.75
2018-07-25T00:46:44.541Z,8.67
2018-07-25T00:49:13.844Z,9.20
2018-07-25T00:51:43.151Z,8.83
2018-07-25T00:54:12.449Z,8.37
2018-07-25T00:56:41.747Z,9.43
2018-07-25T00:59:11.043Z,9.70
2018-07-25T01:01:40.379Z,12.03
2018-07-25T01:04:10.533Z,9.03
2018-07-25T01:06:39.959Z,7.50
2018-07-25T01:09:10.934Z,7.67
2018-07-25T01:11:40.303Z,8.67
2018-07-25T01:14:09.624Z,7.87
2018-07-25T01:16:38.715Z,7.90
2018-07-25T01:19:07.798Z,9.43
2018-07-25T01:21:37.139Z,7.67
2018-07-25T01:24:06.468Z,7.27
2018-07-25T01:26:35.815Z,8.33
2018-07-25T01:29:04.902Z,8.60
2018-07-25T01:31:34.230Z,8.77
2018-07-25T01:34:03.558Z,10.93
2018-07-25T01:36:32.896Z,10.03
2018-07-25T01:39:02.221Z,10.47
2018-07-25T01:41:31.314Z,10.73
2018-07-25T01:44:00.638Z,10.10
2018-07-25T01:46:29.970Z,10.07
2018-07-25T01:48:59.294Z,11.67
2018-07-25T01:51:28.704Z,9.10
2018-07-25T01:53:58.042Z,10.47
2018-07-25T01:56:27.371Z,10.13
2018-07-25T01:58:56.697Z,10.27
2018-07-25T02:01:26.023Z,11.47
2018-07-25T02:03:55.306Z,10.60
2018-07-25T02:06:25.379Z,11.33
2018-07-25T02:08:55.971Z,8.77
2018-07-25T02:11:25.039Z,8.60
2018-07-25T02:13:54.341Z,8.80
2018-07-25T02:16:23.634Z,8.18
2018-07-25T02:18:52.958Z,9.17
2018-07-25T02:21:22.258Z,8.23
2018-07-25T02:23:51.569Z,9.17
2018-07-25T02:26:20.873Z,8.70
2018-07-25T02:28:50.180Z,8.77
2018-07-25T02:31:19.476Z,8.80
2018-07-25T02:33:54.070Z,9.20
2018-07-25T02:36:23.376Z,9.13
2018-07-25T02:38:52.449Z,9.47
2018-07-25T02:41:21.745Z,8.90
2018-07-25T02:43:51.062Z,13.40
2018-07-25T02:46:20.366Z,10.03
2018-07-25T02:48:49.755Z,14.30
2018-07-25T02:51:19.042Z,9.17
2018-07-25T02:53:48.347Z,10.20
2018-07-25T02:56:17.655Z,8.83
2018-07-25T02:58:46.959Z,9.28
2018-07-25T03:01:16.280Z,9.10
2018-07-25T03:03:45.590Z,9.33
2018-07-25T03:06:14.891Z,9.17
2018-07-25T03:08:44.211Z,9.13
2018-07-25T03:11:13.517Z,9.33
2018-07-25T03:13:42.875Z,9.43
2018-07-25T03:16:11.982Z,10.23
2018-07-25T03:18:41.270Z,11.57
2018-07-25T03:21:10.343Z,14.90
2018-07-25T03:23:39.652Z,9.90
2018-07-25T03:26:09.182Z,12.33
2018-07-25T03:28:38.250Z,9.40
2018-07-25T03:31:07.555Z,10.33
2018-07-25T03:33:36.637Z,8.93
2018-07-25T03:36:05.938Z,9.20
2018-07-25T03:38:35.264Z,9.03
2018-07-25T03:41:04.614Z,10.70
2018-07-25T03:43:34.031Z,9.33
2018-07-25T03:46:03.339Z,10.57
2018-07-25T03:48:32.660Z,10.53
2018-07-25T03:51:01.727Z,9.83
2018-07-25T03:53:31.047Z,9.60
2018-07-25T03:56:00.348Z,9.43
2018-07-25T03:58:29.439Z,9.47
2018-07-25T04:00:58.811Z,9.43
2018-07-25T04:03:28.283Z,9.33
2018-07-25T04:05:57.681Z,11.37
2018-07-25T04:08:26.759Z,12.23
2018-07-25T04:10:56.166Z,10.27
2018-07-25T04:13:25.531Z,9.63
2018-07-25T04:15:54.972Z,12.17
2018-07-25T04:18:24.319Z,11.25
2018-07-25T04:20:53.751Z,11.67
2018-07-25T04:23:23.091Z,10.57
2018-07-25T04:25:52.473Z,14.20
2018-07-25T04:28:21.843Z,11.17
2018-07-25T04:30:51.221Z,10.43
2018-07-25T04:33:20.578Z,12.00
2018-07-25T04:35:49.940Z,12.57
2018-07-25T04:38:19.299Z,10.70
2018-07-25T04:40:48.697Z,11.37
2018-07-25T04:43:18.100Z,12.07
2018-07-25T04:45:47.478Z,10.63
2018-07-25T04:48:16.858Z,11.00
2018-07-25T04:50:46.238Z,10.50
2018-07-25T04:53:15.614Z,11.60
2018-07-25T04:55:44.992Z,12.33
2018-07-25T04:58:14.376Z,12.07
2018-07-25T05:00:43.522Z,11.70
2018-07-25T05:03:12.890Z,11.90
2018-07-25T05:05:42.010Z,10.87
2018-07-25T05:08:11.391Z,12.10
2018-07-25T05:10:40.783Z,14.23
2018-07-25T05:13:09.929Z,13.18
2018-07-25T05:15:39.301Z,13.87
2018-07-25T05:18:08.810Z,17.60
2018-07-25T05:20:38.416Z,14.70
2018-07-25T05:23:07.811Z,12.77
2018-07-25T05:25:36.921Z,11.83
2018-07-25T05:28:06.435Z,11.87
2018-07-25T05:30:35.814Z,14.33
2018-07-25T05:33:05.199Z,13.50
2018-07-25T05:35:34.326Z,14.63
2018-07-25T05:38:03.743Z,16.13
2018-07-25T05:40:32.834Z,13.17
2018-07-25T05:43:02.206Z,13.30
2018-07-25T05:45:31.578Z,14.70
2018-07-25T05:48:00.970Z,13.83
2018-07-25T05:50:30.339Z,13.97
2018-07-25T05:52:59.788Z,13.85
2018-07-25T05:55:29.234Z,13.70
2018-07-25T05:57:58.630Z,15.03
2018-07-25T06:00:28.002Z,14.30
2018-07-25T06:02:57.214Z,13.93
2018-07-25T06:05:26.502Z,16.90
2018-07-25T06:07:55.626Z,13.63
2018-07-25T06:10:25.012Z,13.73
2018-07-25T06:12:54.720Z,14.30
2018-07-25T06:15:24.105Z,14.80
2018-07-25T06:17:53.222Z,15.30
2018-07-25T06:20:22.590Z,14.03
2018-07-25T06:22:51.971Z,14.23
2018-07-25T06:25:21.450Z,14.23
2018-07-25T06:27:50.834Z,15.37
2018-07-25T06:30:20.342Z,14.73
2018-07-25T06:32:49.717Z,14.87
2018-07-25T06:35:18.834Z,16.37
2018-07-25T06:37:48.280Z,15.80
2018-07-25T06:40:17.587Z,16.47
2018-07-25T06:42:46.971Z,17.63
2018-07-25T06:45:16.339Z,16.07
2018-07-25T06:47:45.715Z,17.63
2018-07-25T06:50:15.093Z,15.13
2018-07-25T06:52:44.467Z,17.43
2018-07-25T06:55:13.836Z,14.40
2018-07-25T06:57:43.228Z,13.93
2018-07-25T07:00:12.551Z,16.50
2018-07-25T07:02:41.879Z,15.60
2018-07-25T07:05:11.188Z,13.20
2018-07-25T07:07:40.507Z,12.57
2018-07-25T07:10:09.811Z,12.43
2018-07-25T07:12:39.165Z,11.00
2018-07-25T07:15:09.694Z,11.60
2018-07-25T07:17:39.012Z,11.30
2018-07-25T07:20:09.315Z,11.30
2018-07-25T07:22:38.630Z,12.40
2018-07-25T07:25:08.203Z,11.37
2018-07-25T07:27:37.534Z,12.93
2018-07-25T07:30:07.555Z,12.43
2018-07-25T07:32:36.868Z,9.93
2018-07-25T07:35:06.239Z,10.63
2018-07-25T07:37:35.570Z,13.70
2018-07-25T07:40:04.948Z,11.17
2018-07-25T07:42:34.262Z,13.07
2018-07-25T07:45:03.599Z,10.50
2018-07-25T07:47:32.958Z,11.93
2018-07-25T07:50:01.983Z,11.00
2018-07-25T07:52:34.166Z,11.87
2018-07-25T07:55:03.253Z,13.17
2018-07-25T07:57:32.567Z,11.50
2018-07-25T08:00:01.654Z,14.73
2018-07-25T08:02:30.947Z,9.47
2018-07-25T08:05:00.288Z,11.47
2018-07-25T08:07:29.563Z,8.37
2018-07-25T08:09:58.641Z,20.60
2018-07-25T08:12:27.942Z,9.03
2018-07-25T08:14:57.314Z,9.80
2018-07-25T08:17:26.690Z,9.27
2018-07-25T08:19:56.084Z,9.60
2018-07-25T08:22:25.431Z,11.27
2018-07-25T08:24:54.796Z,10.23
2018-07-25T08:27:24.166Z,12.03
2018-07-25T08:29:53.276Z,8.50
2018-07-25T08:32:22.643Z,11.38
2018-07-25T08:34:52.119Z,11.73
2018-07-25T08:37:21.398Z,11.57
2018-07-25T08:39:50.768Z,10.57
2018-07-25T08:42:20.128Z,7.73
2018-07-25T08:44:49.506Z,8.30
2018-07-25T08:47:18.887Z,11.37
2018-07-25T08:49:48.254Z,7.73
2018-07-25T08:52:17.691Z,9.97
2018-07-25T08:54:47.074Z,6.77
2018-07-25T08:57:16.445Z,6.87
2018-07-25T08:59:45.814Z,5.70
2018-07-25T09:02:15.123Z,6.50
2018-07-25T09:04:44.437Z,6.57
2018-07-25T09:07:13.730Z,7.53
2018-07-25T09:09:43.061Z,7.27
2018-07-25T09:12:12.354Z,6.67
2018-07-25T09:14:41.913Z,5.67
2018-07-25T09:17:11.215Z,6.43
2018-07-25T09:19:40.537Z,5.83
2018-07-25T09:22:09.875Z,4.60
2018-07-25T09:24:39.223Z,7.37
2018-07-25T09:27:08.531Z,12.98
2018-07-25T09:29:37.852Z,5.83
2018-07-25T09:32:07.183Z,5.55
2018-07-25T09:34:36.503Z,4.70
2018-07-25T09:37:05.872Z,7.43
2018-07-25T09:39:35.309Z,4.97
2018-07-25T09:42:04.619Z,6.30
2018-07-25T09:44:33.926Z,5.47
2018-07-25T09:47:03.270Z,5.37
2018-07-25T09:49:32.550Z,3.72
2018-07-25T09:52:01.876Z,6.30
2018-07-25T09:54:31.207Z,4.70
2018-07-25T09:57:00.506Z,4.10
2018-07-25T09:59:29.581Z,5.35
2018-07-25T10:01:58.930Z,7.72
2018-07-25T10:04:28.315Z,7.10
2018-07-25T10:06:57.690Z,4.97
2018-07-25T10:09:27.066Z,7.50
2018-07-25T10:11:56.458Z,3.75
2018-07-25T10:14:25.818Z,5.40
2018-07-25T10:16:55.234Z,6.85
2018-07-25T10:19:24.603Z,4.87
2018-07-25T10:21:53.978Z,3.02
2018-07-25T10:24:23.387Z,5.53
2018-07-25T10:26:52.692Z,8.05
2018-07-25T10:29:22.403Z,3.42
2018-07-25T10:31:51.801Z,3.40
2018-07-25T10:34:21.204Z,3.83
2018-07-25T10:36:50.545Z,6.97
2018-07-25T10:39:19.936Z,6.22
2018-07-25T10:41:49.334Z,3.90
2018-07-25T10:44:18.736Z,4.00
2018-07-25T10:46:48.110Z,4.37
2018-07-25T10:49:17.503Z,4.00
2018-07-25T10:51:46.903Z,4.78
2018-07-25T10:54:16.271Z,4.77
2018-07-25T10:56:45.651Z,5.12
2018-07-25T10:59:15.017Z,3.55
2018-07-25T11:01:44.347Z,4.15
2018-07-25T11:04:13.661Z,5.03
2018-07-25T11:06:42.994Z,6.90
2018-07-25T11:09:12.307Z,4.10
2018-07-25T11:11:41.667Z,3.70
2018-07-25T11:14:10.987Z,3.42
2018-07-25T11:16:40.306Z,4.85
2018-07-25T11:19:09.720Z,3.37
2018-07-25T11:21:39.034Z,7.03
2018-07-25T11:24:08.586Z,3.77
2018-07-25T11:26:38.035Z,5.03
2018-07-25T11:29:07.352Z,4.53
2018-07-25T11:31:36.460Z,6.75
2018-07-25T11:34:05.820Z,5.95
2018-07-25T11:36:35.130Z,5.25
2018-07-25T11:39:07.051Z,5.03
2018-07-25T11:41:36.372Z,5.70
2018-07-25T11:44:05.692Z,4.62
2018-07-25T11:46:35.007Z,5.42
2018-07-25T11:49:04.320Z,4.95
2018-07-25T11:51:33.632Z,9.23
2018-07-25T11:54:02.957Z,5.08
2018-07-25T11:56:32.398Z,3.98
2018-07-25T11:59:01.718Z,3.87
2018-07-25T12:01:31.142Z,4.12
2018-07-25T12:04:00.230Z,5.22
2018-07-25T12:06:29.726Z,4.53
2018-07-25T12:08:58.991Z,4.87
2018-07-25T12:11:28.344Z,7.35
2018-07-25T12:13:57.746Z,6.50
2018-07-25T12:16:27.110Z,3.23
2018-07-25T12:18:56.615Z,4.10
2018-07-25T12:21:25.728Z,7.55
2018-07-25T12:23:55.108Z,3.77
2018-07-25T12:26:24.479Z,5.70
2018-07-25T12:28:53.855Z,3.62
2018-07-25T12:31:23.218Z,4.40
2018-07-25T12:33:52.334Z,3.65
2018-07-25T12:36:21.708Z,5.83
2018-07-25T12:38:51.078Z,2.62
2018-07-25T12:41:20.518Z,4.80
2018-07-25T12:43:49.638Z,3.22
2018-07-25T12:46:19.014Z,2.90
2018-07-25T12:48:48.403Z,3.85
2018-07-25T12:51:17.779Z,4.30
2018-07-25T12:53:47.177Z,6.97
2018-07-25T12:56:16.519Z,2.17
2018-07-25T12:58:45.637Z,5.22
2018-07-25T13:01:15.014Z,4.70
2018-07-25T13:03:44.406Z,6.65
2018-07-25T13:06:13.787Z,6.12
2018-07-25T13:08:43.170Z,4.58
2018-07-25T13:11:12.539Z,4.83
2018-07-25T13:13:41.923Z,4.00
2018-07-25T13:16:11.291Z,4.17
2018-07-25T13:18:41.062Z,4.60
2018-07-25T13:21:10.449Z,2.35
2018-07-25T13:23:39.825Z,3.00
2018-07-25T13:26:09.391Z,2.95
2018-07-25T13:28:38.785Z,2.87
2018-07-25T13:31:08.451Z,2.90
2018-07-25T13:33:37.832Z,5.15
2018-07-25T13:36:07.224Z,4.42
2018-07-25T13:38:36.567Z,4.28
2018-07-25T13:41:05.950Z,3.33
2018-07-25T13:43:35.345Z,3.30
2018-07-25T13:46:04.848Z,3.05
2018-07-25T13:48:34.127Z,3.42
2018-07-25T13:51:03.493Z,3.65
2018-07-25T13:53:32.866Z,4.05
2018-07-25T13:56:02.255Z,3.50
2018-07-25T13:58:31.617Z,4.75
2018-07-25T14:01:00.953Z,7.75
2018-07-25T14:03:30.255Z,6.83
2018-07-25T14:05:59.571Z,7.15
2018-07-25T14:08:28.893Z,6.33
2018-07-25T14:10:58.223Z,2.93
2018-07-25T14:13:27.564Z,3.85
2018-07-25T14:15:56.895Z,8.58
2018-07-25T14:18:26.219Z,4.78
2018-07-25T14:20:55.539Z,6.40
2018-07-25T14:23:24.846Z,3.75
2018-07-25T14:25:54.166Z,5.12
2018-07-25T14:28:23.532Z,4.72
2018-07-25T14:30:52.847Z,5.42
2018-07-25T14:33:22.162Z,3.37
2018-07-25T14:35:51.488Z,3.25
2018-07-25T14:38:20.565Z,2.75
2018-07-25T14:40:49.910Z,3.40
2018-07-25T14:43:19.267Z,4.30
2018-07-25T14:45:48.535Z,2.90
2018-07-25T14:48:17.846Z,3.42
2018-07-25T14:50:47.162Z,4.55
2018-07-25T14:53:16.484Z,3.70
2018-07-25T14:55:45.595Z,4.10
2018-07-25T14:58:14.643Z,5.97
2018-07-25T15:00:44.032Z,3.15
2018-07-25T15:03:13.395Z,5.20
2018-07-25T15:05:42.784Z,4.08
2018-07-25T15:08:12.152Z,5.40
2018-07-25T15:10:41.547Z,5.75
2018-07-25T15:13:10.990Z,4.25
2018-07-25T15:15:40.287Z,5.90
2018-07-25T15:18:09.648Z,4.30
2018-07-25T15:20:39.028Z,6.25
2018-07-25T15:23:08.387Z,4.85
2018-07-25T15:25:37.770Z,3.55
2018-07-25T15:28:07.182Z,5.97
2018-07-25T15:30:36.537Z,3.47
2018-07-25T15:33:05.911Z,5.12
2018-07-25T15:35:35.296Z,5.50
2018-07-25T15:38:04.504Z,3.27
2018-07-25T15:40:33.620Z,4.25
2018-07-25T15:43:02.990Z,4.58
2018-07-25T15:45:32.114Z,4.22
2018-07-25T15:48:01.472Z,5.53
2018-07-25T15:50:30.859Z,5.25
2018-07-25T15:53:00.233Z,7.22
2018-07-25T15:55:29.756Z,3.67
2018-07-25T15:57:59.138Z,3.58
2018-07-25T16:00:28.456Z,6.42
2018-07-25T16:02:57.793Z,3.15
2018-07-25T16:05:26.886Z,5.58
2018-07-25T16:07:55.965Z,3.25
2018-07-25T16:10:25.290Z,8.43
2018-07-25T16:12:54.367Z,4.87
2018-07-25T16:15:23.714Z,2.83
2018-07-25T16:17:52.987Z,3.00
2018-07-25T16:20:22.055Z,3.77
2018-07-25T16:22:51.377Z,6.00
2018-07-25T16:25:20.449Z,6.15
2018-07-25T16:27:49.783Z,7.58
2018-07-25T16:30:19.096Z,3.93
2018-07-25T16:32:48.423Z,4.65
2018-07-25T16:35:17.758Z,3.55
2018-07-25T16:37:47.048Z,6.55
2018-07-25T16:40:16.405Z,4.58
2018-07-25T16:42:45.703Z,6.95
2018-07-25T16:45:15.127Z,3.92
2018-07-25T16:47:44.488Z,3.65
2018-07-25T16:50:13.780Z,2.20
2018-07-25T16:52:42.870Z,2.77
2018-07-25T16:55:12.373Z,2.77
2018-07-25T16:57:43.566Z,2.17
2018-07-25T17:00:12.909Z,1.57
2018-07-25T17:02:42.286Z,3.98
2018-07-25T17:05:11.598Z,3.25
2018-07-25T17:07:40.927Z,3.75
2018-07-25T17:10:10.006Z,3.77
2018-07-25T17:12:39.346Z,4.75
2018-07-25T17:15:08.666Z,2.35
2018-07-25T17:17:37.999Z,1.98
2018-07-25T17:20:07.728Z,4.15
2018-07-25T17:22:36.815Z,3.67
2018-07-25T17:25:06.372Z,3.15
2018-07-25T17:27:35.719Z,11.08
2018-07-25T17:30:05.958Z,4.15
2018-07-25T17:32:35.307Z,3.62
2018-07-25T17:35:04.972Z,6.55
2018-07-25T17:37:34.334Z,4.28
2018-07-25T17:40:03.786Z,5.20
2018-07-25T17:42:33.122Z,4.55
2018-07-25T17:45:02.450Z,3.33
2018-07-25T17:47:31.762Z,2.62
2018-07-25T17:50:00.856Z,3.45
2018-07-25T17:52:29.950Z,2.95
2018-07-25T17:54:59.268Z,6.75
2018-07-25T17:57:28.601Z,4.72
2018-07-25T17:59:58.030Z,1.98
2018-07-25T18:02:27.539Z,4.00
2018-07-25T18:04:57.205Z,3.45
2018-07-25T18:07:26.619Z,1.57
2018-07-25T18:09:56.080Z,2.00
2018-07-25T18:12:25.461Z,4.62
2018-07-25T18:14:54.849Z,1.90
2018-07-25T18:17:24.239Z,3.62
2018-07-25T18:19:53.636Z,2.17
2018-07-25T18:22:23.000Z,2.23
2018-07-25T18:24:52.121Z,3.27
2018-07-25T18:27:21.512Z,2.52
2018-07-25T18:29:50.901Z,3.35
2018-07-25T18:32:20.283Z,4.35
2018-07-25T18:34:49.690Z,2.77
2018-07-25T18:37:18.853Z,2.25
2018-07-25T18:39:48.235Z,1.90
2018-07-25T18:42:17.619Z,4.25
2018-07-25T18:44:46.993Z,3.60
2018-07-25T18:47:16.118Z,2.02
2018-07-25T18:49:45.630Z,2.45
2018-07-25T18:52:15.026Z,6.37
2018-07-25T18:54:44.416Z,2.40
2018-07-25T18:57:13.812Z,5.58
2018-07-25T18:59:43.758Z,6.83
2018-07-25T19:02:13.316Z,3.72
2018-07-25T19:04:42.414Z,7.58
2018-07-25T19:07:11.615Z,3.52
2018-07-25T19:09:40.906Z,6.12
2018-07-25T19:12:10.243Z,4.65
2018-07-25T19:14:44.943Z,3.25
2018-07-25T19:17:15.304Z,7.15
2018-07-25T19:19:45.249Z,3.40
2018-07-25T19:22:14.579Z,9.43
2018-07-25T19:24:43.687Z,12.30
2018-07-25T19:27:12.756Z,9.35
2018-07-25T19:29:42.111Z,3.98
2018-07-25T19:32:12.105Z,3.37
2018-07-25T19:34:41.447Z,3.27
2018-07-25T19:37:10.758Z,3.77
2018-07-25T19:39:40.117Z,2.37
2018-07-25T19:42:10.248Z,2.83
2018-07-25T19:44:39.610Z,4.90
2018-07-25T19:47:09.539Z,7.78
2018-07-25T19:49:38.970Z,5.97
2018-07-25T19:52:08.598Z,5.53
2018-07-25T19:54:37.940Z,7.97
2018-07-25T19:57:07.035Z,3.60
2018-07-25T19:59:36.129Z,3.75
2018-07-25T20:02:05.242Z,3.50
2018-07-25T20:04:34.659Z,4.25
2018-07-25T20:07:04.005Z,2.80
2018-07-25T20:09:33.347Z,3.42
2018-07-25T20:12:02.670Z,4.92
2018-07-25T20:14:37.268Z,6.28
2018-07-25T20:17:06.634Z,4.45
2018-07-25T20:19:35.993Z,7.37
2018-07-25T20:22:05.309Z,5.00
2018-07-25T20:24:34.648Z,3.40
2018-07-25T20:27:03.993Z,3.60
2018-07-25T20:29:33.373Z,3.63
2018-07-25T20:32:02.651Z,3.50
2018-07-25T20:34:32.020Z,3.67
2018-07-25T20:37:01.353Z,3.97
2018-07-25T20:39:30.468Z,2.85
2018-07-25T20:41:59.571Z,4.53
2018-07-25T20:44:28.952Z,6.03
2018-07-25T20:46:58.323Z,4.47
2018-07-25T20:49:27.686Z,6.00
2018-07-25T20:51:57.091Z,6.17
2018-07-25T20:54:26.498Z,4.07
2018-07-25T20:56:55.895Z,4.97
2018-07-25T20:59:25.259Z,6.10
2018-07-25T21:01:54.405Z,5.73
2018-07-25T21:04:23.767Z,4.37
2018-07-25T21:06:52.885Z,6.57
2018-07-25T21:09:22.244Z,2.67
2018-07-25T21:11:51.617Z,4.23
2018-07-25T21:14:21.443Z,5.12
2018-07-25T21:16:50.846Z,3.63
2018-07-25T21:19:20.200Z,2.90
2018-07-25T21:21:49.632Z,5.73
2018-07-25T21:24:18.959Z,4.23
2018-07-25T21:26:48.323Z,3.93
2018-07-25T21:29:17.708Z,5.77
2018-07-25T21:31:47.096Z,7.93
2018-07-25T21:34:16.455Z,5.13
2018-07-25T21:36:45.786Z,4.53
2018-07-25T21:39:15.115Z,5.80
2018-07-25T21:41:44.461Z,4.33
2018-07-25T21:44:13.779Z,2.97
2018-07-25T21:46:42.879Z,3.23
2018-07-25T21:49:11.949Z,5.07
2018-07-25T21:51:41.284Z,5.63
2018-07-25T21:54:10.614Z,3.07
2018-07-25T21:56:39.975Z,3.53
2018-07-25T21:59:09.288Z,3.63
2018-07-25T22:01:38.688Z,3.63
2018-07-25T22:04:08.819Z,2.72
2018-07-25T22:06:38.208Z,3.97
2018-07-25T22:09:10.734Z,3.77
2018-07-25T22:11:40.719Z,4.43
2018-07-25T22:14:10.103Z,2.60
2018-07-25T22:16:39.499Z,3.40
2018-07-25T22:19:08.863Z,4.37
2018-07-25T22:21:38.247Z,4.50
2018-07-25T22:24:07.632Z,4.33
2018-07-25T22:26:37.019Z,5.17
2018-07-25T22:29:06.403Z,3.50
2018-07-25T22:31:35.535Z,5.83
2018-07-25T22:34:04.912Z,2.83
2018-07-25T22:36:34.046Z,4.60
2018-07-25T22:39:03.542Z,4.90
2018-07-25T22:41:32.952Z,6.50
2018-07-25T22:44:02.386Z,4.70
2018-07-25T22:46:31.747Z,3.93
2018-07-25T22:49:01.443Z,3.00
2018-07-25T22:51:30.824Z,5.13
2018-07-25T22:53:59.947Z,4.00
2018-07-25T22:56:29.335Z,4.67
2018-07-25T22:58:58.750Z,4.63
2018-07-25T23:01:28.168Z,4.97
2018-07-25T23:03:57.573Z,5.43
2018-07-25T23:06:26.955Z,4.72
2018-07-25T23:08:56.350Z,4.27
2018-07-25T23:11:25.740Z,5.00
2018-07-25T23:13:55.220Z,3.05
2018-07-25T23:16:24.608Z,4.53
2018-07-25T23:18:54.060Z,4.45
2018-07-25T23:21:23.158Z,3.43
2018-07-25T23:23:52.550Z,3.63
2018-07-25T23:26:21.931Z,5.28
2018-07-25T23:28:51.079Z,10.83
2018-07-25T23:31:20.458Z,3.73
2018-07-25T23:33:49.846Z,5.13
2018-07-25T23:36:18.967Z,3.75
2018-07-25T23:38:48.355Z,3.30
2018-07-25T23:41:17.739Z,5.47
2018-07-25T23:43:46.868Z,3.33
2018-07-25T23:46:16.253Z,4.10
2018-07-25T23:48:45.864Z,5.20
2018-07-25T23:51:15.344Z,2.83
2018-07-25T23:53:44.741Z,5.50
2018-07-25T23:56:13.854Z,5.45
2018-07-25T23:58:43.254Z,5.07
